M I D A S
Marine Information and Data Acquisition System
Tripno 2060 of the Zeeleeuw from 2011-03-17 07:15:59 to 2011-03-17 18:06:09
Back to CruiseResearch ActivitiesStationsMapUnderway DataData graphs

EquipmentUnitsComment
TimeDGPSUTC
LatitudeDGPSDM.mWGS84
LongitudeDGPSDM.mWGS84
HeadingGyrodeg 
SOGDGPSknotsSpeed over ground
COGDGPSdegCourse over ground
DepthEcho soundermeters200 kHz
Missing or incorrect values are displayed as -999
Navigation data collected by the RV Zeeleeuw from 2011-03-17 07:05:48 to 2011-03-17 18:13:10
Time Latitude Longitude Heading SOG COG Depth
2011-03-17 07:06:53 51°13.662 2°55.96 127.6 -999 15 7.8
2011-03-17 07:07:53 51°13.662 2°55.96 126.9 -999 179 -999
2011-03-17 07:08:53 51°13.663 2°55.959 125.5 0.1 356 -999
2011-03-17 07:09:53 51°13.662 2°55.96 128.1 0.1 351 -999
2011-03-17 07:10:52 51°13.662 2°55.96 127.7 0.1 1 -999
2011-03-17 07:11:53 51°13.662 2°55.96 126.1 0.1 72 -999
2011-03-17 07:12:54 51°13.662 2°55.96 126.3 -999 72 -999
2011-03-17 07:13:54 51°13.662 2°55.96 128 0.1 10 -999
2011-03-17 07:14:54 51°13.662 2°55.96 125.9 -999 8 -999
2011-03-17 07:15:53 51°13.662 2°55.96 125 -999 1 8
2011-03-17 07:16:54 51°13.662 2°55.96 125.1 -999 233 -999
2011-03-17 07:17:54 51°13.662 2°55.96 126.4 -999 113 7.9
2011-03-17 07:18:54 51°13.662 2°55.96 128.4 0.1 3 -999
2011-03-17 07:19:54 51°13.662 2°55.959 126.3 -999 147 8.2
2011-03-17 07:20:53 51°13.662 2°55.959 125.6 -999 179 -999
2011-03-17 07:21:54 51°13.662 2°55.959 127.1 -999 162 8.1
2011-03-17 07:22:53 51°13.662 2°55.959 127.3 -999 345 8.2
2011-03-17 07:23:54 51°13.662 2°55.959 127.6 -999 77 -999
2011-03-17 07:24:53 51°13.662 2°55.96 126.2 -999 298 8.1
2011-03-17 07:25:54 51°13.663 2°55.959 125.7 -999 154 -999
2011-03-17 07:26:53 51°13.662 2°55.959 126.8 -999 1 -999
2011-03-17 07:27:54 51°13.662 2°55.96 125.9 -999 343 -999
2011-03-17 07:28:53 51°13.663 2°55.96 125.3 -999 46 -999
2011-03-17 07:29:54 51°13.662 2°55.96 127.8 0.1 156 -999
2011-03-17 07:30:54 51°13.662 2°55.96 127.2 0.1 196 -999
2011-03-17 07:31:53 51°13.662 2°55.96 126.9 -999 306 8.1
2011-03-17 07:32:54 51°13.663 2°55.96 126.1 -999 151 -999
2011-03-17 07:33:53 51°13.663 2°55.96 125.7 -999 351 -999
2011-03-17 07:34:54 51°13.663 2°55.959 125.6 -999 95 -999
2011-03-17 07:35:53 51°13.663 2°55.961 128.8 -999 27 -999
2011-03-17 07:36:54 51°13.663 2°55.961 128.8 -999 29 -999
2011-03-17 07:37:54 51°13.662 2°55.961 129.2 -999 45 8.2
2011-03-17 07:38:53 51°13.663 2°55.961 128.5 -999 72 -999
2011-03-17 07:39:53 51°13.662 2°55.96 118.3 -999 193 8.2
2011-03-17 07:40:51 51°13.665 2°55.947 109 1.7 293 8.8
2011-03-17 07:41:54 51°13.678 2°55.865 104.2 3.7 282 -999
2011-03-17 07:42:53 51°13.694 2°55.775 117.8 3.3 292 -999
2011-03-17 07:43:54 51°13.731 2°55.701 143.1 4.1 320 -999
2011-03-17 07:44:53 51°13.798 2°55.642 161.4 5.1 339 -999
2011-03-17 07:45:54 51°13.882 2°55.619 184.6 4.5 -999 -999
2011-03-17 07:46:53 51°13.938 2°55.643 210.3 2.9 25 11.9
2011-03-17 07:47:50 51°13.951 2°55.638 248.3 2.4 262 12
2011-03-17 07:48:50 51°13.993 2°55.548 325.2 6 324 11.9
2011-03-17 07:49:50 51°14.098 2°55.44 331.5 8.3 329 11.6
2011-03-17 07:50:52 51°14.228 2°55.315 329.7 9.6 328 -999
2011-03-17 07:51:51 51°14.373 2°55.171 328.8 11.2 328 11.4
2011-03-17 07:52:51 51°14.531 2°54.993 327.3 11.8 325 12.4
2011-03-17 07:53:50 51°14.687 2°54.812 326.8 11.7 323 12.2
2011-03-17 07:54:50 51°14.852 2°54.647 334.4 11.7 332 12.1
2011-03-17 07:55:49 51°15.02 2°54.505 334.9 11.6 332 11.5
2011-03-17 07:56:50 51°15.2 2°54.401 353.9 11.4 355 10.1
2011-03-17 07:57:50 51°15.39 2°54.393 356.6 11.4 353 10.1
2011-03-17 07:58:50 51°15.578 2°54.353 356.9 11.4 355 10.9
2011-03-17 07:59:50 51°15.768 2°54.319 355 11.5 354 11.6
2011-03-17 08:00:50 51°15.957 2°54.28 355 11.5 353 12.1
2011-03-17 08:01:50 51°16.116 2°54.267 8.5 7.2 12 12.2
2011-03-17 08:02:50 51°16.205 2°54.328 25.3 5.4 28 12.5
2011-03-17 08:03:50 51°16.264 2°54.383 31.4 2.7 43 12.5
2011-03-17 08:04:50 51°16.273 2°54.418 72 1.1 92 12.5
2011-03-17 08:05:50 51°16.269 2°54.446 86.6 1.1 111 12.6
2011-03-17 08:06:50 51°16.262 2°54.471 85.1 1 115 12.5
2011-03-17 08:07:50 51°16.255 2°54.491 82.9 0.8 115 12.6
2011-03-17 08:08:50 51°16.248 2°54.509 82.2 0.9 131 12.5
2011-03-17 08:09:49 51°16.241 2°54.525 82.9 0.7 131 12.3
2011-03-17 08:10:50 51°16.233 2°54.539 85.3 0.7 139 12.5
2011-03-17 08:11:49 51°16.225 2°54.551 89.4 0.6 136 12.5
2011-03-17 08:12:50 51°16.217 2°54.562 92.2 0.7 146 12.5
2011-03-17 08:13:49 51°16.21 2°54.573 97.2 0.6 137 12.5
2011-03-17 08:14:50 51°16.202 2°54.585 101.6 0.6 132 12.5
2011-03-17 08:15:50 51°16.193 2°54.6 107 1.5 120 12.2
2011-03-17 08:16:50 51°16.154 2°54.648 167.7 3.5 170 12.3
2011-03-17 08:17:50 51°16.096 2°54.59 238.5 5.8 241 12.4
2011-03-17 08:18:50 51°16.079 2°54.407 269.7 7.7 268 12.2
2011-03-17 08:19:50 51°16.123 2°54.234 318 7.4 320 12.6
2011-03-17 08:20:49 51°16.229 2°54.157 0.1 6 7 12.4
2011-03-17 08:21:50 51°16.272 2°54.211 60.6 1.4 81 12.8
2011-03-17 08:22:49 51°16.266 2°54.229 96.1 0.8 125 13
2011-03-17 08:23:49 51°16.257 2°54.248 112.6 0.9 135 12.9
2011-03-17 08:24:50 51°16.247 2°54.269 114.1 1 121 12.9
2011-03-17 08:25:50 51°16.238 2°54.29 107.5 1 123 13.1
2011-03-17 08:26:50 51°16.23 2°54.312 103.2 0.9 115 12.8
2011-03-17 08:27:50 51°16.223 2°54.333 96.7 0.9 125 13
2011-03-17 08:28:50 51°16.216 2°54.354 90.7 0.9 117 12.9
2011-03-17 08:29:50 51°16.209 2°54.375 87 0.9 116 12.9
2011-03-17 08:30:50 51°16.202 2°54.394 85 0.8 119 13
2011-03-17 08:31:50 51°16.196 2°54.418 80.4 1.8 96 13
2011-03-17 08:32:50 51°16.227 2°54.473 12.4 3.4 16 13.1
2011-03-17 08:33:50 51°16.285 2°54.413 301.5 6.3 298 13.1
2011-03-17 08:34:50 51°16.354 2°54.199 299.9 11 300 13
2011-03-17 08:35:50 51°16.459 2°53.933 303.5 12.2 305 13.6
2011-03-17 08:36:50 51°16.576 2°53.665 303.5 12.4 304 13.6
2011-03-17 08:37:50 51°16.693 2°53.393 303.6 12.4 305 13.3
2011-03-17 08:38:50 51°16.823 2°53.133 311 12.4 312 12.1
2011-03-17 08:39:50 51°16.961 2°52.888 310.3 12.6 312 11.2
2011-03-17 08:40:50 51°17.104 2°52.642 315.3 12.6 317 11.6
2011-03-17 08:41:50 51°17.259 2°52.417 315.8 12.6 317 12.5
2011-03-17 08:42:50 51°17.414 2°52.189 315.1 12.7 317 13.6
2011-03-17 08:43:50 51°17.568 2°51.96 315.7 12.5 318 12.5
2011-03-17 08:44:50 51°17.72 2°51.733 315.4 12.5 317 12
2011-03-17 08:45:50 51°17.871 2°51.509 314.9 12.4 317 12.8
2011-03-17 08:46:50 51°18.027 2°51.291 319.3 12.6 321 13.5
2011-03-17 08:47:50 51°18.153 2°51.14 320.9 7.5 322 15.2
2011-03-17 08:48:50 51°18.236 2°51.051 322.7 4.9 328 15
2011-03-17 08:49:49 51°18.293 2°50.984 316.5 4.1 322 15.5
2011-03-17 08:50:50 51°18.346 2°50.921 323.3 3.8 328 15.9
2011-03-17 08:51:49 51°18.404 2°50.901 2.4 3.7 13 16.4
2011-03-17 08:52:49 51°18.465 2°50.932 10.2 4.1 18 16.2
2011-03-17 08:53:50 51°18.52 2°50.963 10.9 2.1 28 16.4
2011-03-17 08:54:49 51°18.53 2°50.988 46.2 1.1 89 17
2011-03-17 08:55:50 51°18.529 2°51.015 77.6 0.9 99 16.5
2011-03-17 08:56:50 51°18.524 2°51.039 93.9 1 114 16.7
2011-03-17 08:57:50 51°18.519 2°51.062 100.4 1 103 16.5
2011-03-17 08:58:50 51°18.514 2°51.086 102.9 1 111 16.4
2011-03-17 08:59:50 51°18.509 2°51.108 101.9 0.9 109 16.6
2011-03-17 09:00:49 51°18.504 2°51.131 97.6 0.9 106 16.2
2011-03-17 09:01:50 51°18.5 2°51.155 95.1 1 108 16.2
2011-03-17 09:02:50 51°18.495 2°51.179 91.1 0.9 98 16.4
2011-03-17 09:03:50 51°18.491 2°51.201 87.9 0.9 111 16.2
2011-03-17 09:04:50 51°18.486 2°51.224 88.6 1 115 16.6
2011-03-17 09:05:49 51°18.482 2°51.247 90.5 0.9 103 16.2
2011-03-17 09:06:50 51°18.478 2°51.27 91.4 0.9 101 16.5
2011-03-17 09:07:49 51°18.475 2°51.294 91.5 0.9 104 15.9
2011-03-17 09:08:50 51°18.47 2°51.317 92.6 0.8 97 15.8
2011-03-17 09:09:50 51°18.466 2°51.339 96.4 0.9 103 15.9
2011-03-17 09:10:50 51°18.463 2°51.363 96 0.9 106 16.1
2011-03-17 09:11:50 51°18.459 2°51.386 97.1 0.9 103 16.3
2011-03-17 09:12:49 51°18.457 2°51.41 97.3 1.4 95 16
2011-03-17 09:13:50 51°18.477 2°51.547 72.5 8.7 72 15.9
2011-03-17 09:14:49 51°18.533 2°51.845 76.3 13.8 73 15.2
2011-03-17 09:15:50 51°18.6 2°52.208 76.3 14.2 74 14.7
2011-03-17 09:16:49 51°18.664 2°52.563 75.9 14.1 74 14.5
2011-03-17 09:17:50 51°18.738 2°52.926 73.9 14 73 14.5
2011-03-17 09:18:49 51°18.809 2°53.277 73.4 14.2 72 14.6
2011-03-17 09:19:50 51°18.883 2°53.641 73.9 14.2 73 14.2
2011-03-17 09:20:50 51°18.957 2°54 74 14.2 72 14.6
2011-03-17 09:21:50 51°19.03 2°54.36 74.8 14.2 72 14.4
2011-03-17 09:22:50 51°19.104 2°54.72 74.7 14.3 69 14
2011-03-17 09:23:49 51°19.18 2°55.075 73.4 14.3 71 14.3
2011-03-17 09:24:50 51°19.258 2°55.442 73.3 14.4 73 14.3
2011-03-17 09:25:49 51°19.335 2°55.796 73.8 14.4 71 14.4
2011-03-17 09:26:50 51°19.416 2°56.164 73.1 14.6 71 13.9
2011-03-17 09:27:49 51°19.494 2°56.524 73.6 14.5 70 13.5
2011-03-17 09:28:50 51°19.574 2°56.892 72.8 14.4 71 13.6
2011-03-17 09:29:50 51°19.654 2°57.254 73.3 14.5 70 13.6
2011-03-17 09:30:49 51°19.732 2°57.611 74.6 14.6 71 13.7
2011-03-17 09:31:50 51°19.813 2°57.982 73.4 14.5 71 13.4
2011-03-17 09:32:49 51°19.891 2°58.344 74.2 14.7 72 13.2
2011-03-17 09:33:50 51°19.972 2°58.718 73.1 14.7 71 12.8
2011-03-17 09:34:49 51°20.051 2°59.081 72.8 14.7 71 12.8
2011-03-17 09:35:50 51°20.131 2°59.458 74.5 14.8 71 12.8
2011-03-17 09:36:49 51°20.207 2°59.826 74.4 14.8 73 12.9
2011-03-17 09:37:50 51°20.287 3°0.206 73.9 14.9 71 12.3
2011-03-17 09:38:50 51°20.354 3°0.586 76.6 14.8 74 12.2
2011-03-17 09:39:49 51°20.421 3°0.961 76.3 14.8 74 12.5
2011-03-17 09:40:50 51°20.49 3°1.347 75.6 14.9 75 12.5
2011-03-17 09:41:49 51°20.56 3°1.72 76.3 14.9 73 12
2011-03-17 09:42:50 51°20.626 3°2.096 76.9 13.5 74 12.3
2011-03-17 09:43:49 51°20.681 3°2.414 75.9 10.7 73 12.4
2011-03-17 09:44:50 51°20.727 3°2.595 64 4.8 70 12.9
2011-03-17 09:45:51 51°20.737 3°2.643 111.1 1.1 24 -999
2011-03-17 09:46:52 51°20.75 3°2.662 120.1 1.1 54 12.7
2011-03-17 09:47:50 51°20.758 3°2.688 124 1.1 73 12.8
2011-03-17 09:48:49 51°20.763 3°2.721 126.1 1.4 85 13.1
2011-03-17 09:49:50 51°20.765 3°2.762 123.8 1.6 87 12.5
2011-03-17 09:50:50 51°20.766 3°2.807 117.7 1.8 84 12.6
2011-03-17 09:51:50 51°20.767 3°2.856 108.7 1.9 93 12.8
2011-03-17 09:52:50 51°20.77 3°2.902 97.4 1.6 85 12.7
2011-03-17 09:53:50 51°20.772 3°2.943 95.8 1.4 88 13
2011-03-17 09:54:50 51°20.775 3°2.976 104.6 1.1 85 12.6
2011-03-17 09:55:50 51°20.78 3°3.005 117.5 1 70 12.6
2011-03-17 09:56:50 51°20.788 3°3.03 127.8 1 52 13.1
2011-03-17 09:57:50 51°20.8 3°3.053 138.2 1.3 56 12.2
2011-03-17 09:58:50 51°20.801 3°3.099 126.9 3.3 103 12.8
2011-03-17 09:59:50 51°20.813 3°3.218 59.7 5.1 62 12.7
2011-03-17 10:00:50 51°20.893 3°3.276 342.5 6.6 350 12.4
2011-03-17 10:01:50 51°20.957 3°3.099 269.6 9.8 265 12.8
2011-03-17 10:02:50 51°20.842 3°2.889 221.6 11.4 215 12.7
2011-03-17 10:03:50 51°20.676 3°2.729 223.3 11.7 223 12.2
2011-03-17 10:04:50 51°20.627 3°2.467 278.3 9 288 12.2
2011-03-17 10:05:50 51°20.718 3°2.429 11.3 5.4 31 12.8
2011-03-17 10:06:50 51°20.752 3°2.498 64.1 1.7 76 12.7
2011-03-17 10:07:50 51°20.757 3°2.538 99.1 1.4 76 5
2011-03-17 10:08:50 51°20.764 3°2.572 113.6 1.3 70 12.8
2011-03-17 10:09:50 51°20.771 3°2.606 120.1 1.3 74 12.9
2011-03-17 10:10:50 51°20.777 3°2.64 125 1.3 71 12.8
2011-03-17 10:11:50 51°20.783 3°2.674 129.9 1.3 73 13.1
2011-03-17 10:12:50 51°20.788 3°2.709 133.6 1.4 81 13
2011-03-17 10:13:50 51°20.79 3°2.75 132.8 1.7 88 12.8
2011-03-17 10:14:50 51°20.792 3°2.796 124.4 1.8 89 12.5
2011-03-17 10:15:50 51°20.793 3°2.85 108.7 2.9 85 12.6
2011-03-17 10:16:50 51°20.807 3°2.977 80.8 7.5 78 12.7
2011-03-17 10:17:50 51°20.83 3°3.218 84.5 10.5 83 12.6
2011-03-17 10:18:50 51°20.861 3°3.558 84.9 14.2 83 12.1
2011-03-17 10:19:49 51°20.89 3°3.93 85.7 14.3 84 12.2
2011-03-17 10:20:50 51°20.92 3°4.314 84.8 14.4 81 12
2011-03-17 10:21:50 51°20.95 3°4.697 85.9 14.7 81 11.9
2011-03-17 10:22:50 51°20.998 3°5.078 79.1 14.7 77 12.3
2011-03-17 10:23:50 51°21.031 3°5.456 86.5 14.3 84 11.9
2011-03-17 10:24:50 51°21.061 3°5.835 85 14.2 83 12.1
2011-03-17 10:25:50 51°21.102 3°6.211 77.1 14.4 74 11.7
2011-03-17 10:26:50 51°21.175 3°6.575 75 14.4 73 12.2
2011-03-17 10:27:50 51°21.252 3°6.937 70.9 14.4 71 12
2011-03-17 10:28:50 51°21.339 3°7.291 70.9 14.3 69 12.1
2011-03-17 10:29:50 51°21.427 3°7.647 70.4 14.4 70 12.6
2011-03-17 10:30:50 51°21.514 3°8.005 71.2 14.4 69 12.7
2011-03-17 10:31:50 51°21.597 3°8.366 72 14.4 70 13.1
2011-03-17 10:32:50 51°21.681 3°8.725 71.5 14.4 70 13.3
2011-03-17 10:33:50 51°21.763 3°9.085 71.3 14.4 69 13.5
2011-03-17 10:34:50 51°21.848 3°9.443 71.8 14.5 70 14.8
2011-03-17 10:35:50 51°21.933 3°9.805 71.1 14.6 69 15.9
2011-03-17 10:36:50 51°22.018 3°10.171 73.3 14.6 73 17.1
2011-03-17 10:37:50 51°22.061 3°10.549 86.5 14.5 84 18.5
2011-03-17 10:38:50 51°22.099 3°10.931 81.2 14.5 79 20.9
2011-03-17 10:39:50 51°22.147 3°11.311 77.6 14.7 76 19.9
2011-03-17 10:40:50 51°22.223 3°11.675 69.8 13 69 19.2
2011-03-17 10:41:50 51°22.282 3°11.936 70.1 9.2 71 18.5
2011-03-17 10:42:50 51°22.325 3°12.125 62 6.5 66 18.2
2011-03-17 10:43:50 51°22.368 3°12.265 52.5 6 61 17.9
2011-03-17 10:44:50 51°22.41 3°12.434 78.1 7.4 79 17.7
2011-03-17 10:45:50 51°22.448 3°12.623 63.3 7.6 70 16.9
2011-03-17 10:46:49 51°22.483 3°12.819 67.7 7.6 72 16.1
2011-03-17 10:47:50 51°22.504 3°12.939 81.9 1.9 89 15.7
2011-03-17 10:48:53 51°22.505 3°12.987 109.5 1.8 90 -999
2011-03-17 10:49:51 51°22.505 3°13.034 110.6 1.8 91 15.4
2011-03-17 10:50:49 51°22.504 3°13.08 109 1.8 93 15.3
2011-03-17 10:51:50 51°22.501 3°13.129 107.5 1.8 94 15.1
2011-03-17 10:52:50 51°22.498 3°13.177 109.1 1.8 93 15.1
2011-03-17 10:53:50 51°22.495 3°13.225 110 1.9 94 14.9
2011-03-17 10:54:50 51°22.493 3°13.273 110.6 1.8 93 14.8
2011-03-17 10:55:50 51°22.49 3°13.321 111.1 1.9 95 14.6
2011-03-17 10:56:50 51°22.487 3°13.369 110.1 1.8 96 14.7
2011-03-17 10:57:50 51°22.483 3°13.419 109 1.9 98 14.6
2011-03-17 10:58:50 51°22.479 3°13.468 107.6 2.1 103 14.4
2011-03-17 10:59:50 51°22.449 3°13.554 163.4 4.4 143 14.2
2011-03-17 11:00:50 51°22.399 3°13.543 247.8 2.7 243 14.1
2011-03-17 11:01:50 51°22.431 3°13.485 322.8 4.9 338 14.5
2011-03-17 11:02:50 51°22.547 3°13.372 319.7 10.5 325 14.3
2011-03-17 11:03:50 51°22.716 3°13.217 328 12.1 334 14.5
2011-03-17 11:04:50 51°22.898 3°13.077 329.6 12.2 335 14
2011-03-17 11:05:50 51°23.081 3°12.936 328.6 12.3 334 14.1
2011-03-17 11:06:50 51°23.271 3°12.812 333.6 12.3 338 14
2011-03-17 11:07:50 51°23.463 3°12.694 333.3 12.3 339 14.4
2011-03-17 11:08:50 51°23.654 3°12.57 332.9 12.5 338 14.3
2011-03-17 11:09:50 51°23.848 3°12.447 333.7 12.6 339 14.4
2011-03-17 11:10:50 51°24.043 3°12.323 332.6 12.6 336 18
2011-03-17 11:11:50 51°24.236 3°12.198 333.1 12.3 337 21.3
2011-03-17 11:12:50 51°24.425 3°12.07 333.3 12.4 337 22.2
2011-03-17 11:13:50 51°24.612 3°11.927 331.5 12.5 333 17.6
2011-03-17 11:14:50 51°24.791 3°11.761 326.5 12.5 329 15.1
2011-03-17 11:15:50 51°24.961 3°11.57 320.8 12.5 321 13.4
2011-03-17 11:16:50 51°25.11 3°11.338 311 12.5 312 12.5
2011-03-17 11:17:50 51°25.234 3°11.074 304.4 12.5 305 11.9
2011-03-17 11:18:50 51°25.352 3°10.802 303.7 12.5 304 10.8
2011-03-17 11:19:50 51°25.47 3°10.529 304.2 12.5 306 10
2011-03-17 11:20:50 51°25.591 3°10.257 304.6 12.6 305 10
2011-03-17 11:21:50 51°25.671 3°9.957 286.7 12.3 289 9.7
2011-03-17 11:22:50 51°25.752 3°9.654 293.2 12.3 294 10
2011-03-17 11:23:50 51°25.839 3°9.354 293.3 12.4 295 10.5
2011-03-17 11:24:50 51°25.927 3°9.054 293.1 12.5 295 10.9
2011-03-17 11:25:50 51°26.017 3°8.755 292.6 12.5 297 11.7
2011-03-17 11:26:50 51°26.12 3°8.463 296.9 12.6 300 12.2
2011-03-17 11:27:50 51°26.224 3°8.22 310.3 9.4 318 12.2
2011-03-17 11:28:50 51°26.336 3°8.172 1.4 6.1 9 12.6
2011-03-17 11:29:50 51°26.407 3°8.236 43 4.1 41 12.4
2011-03-17 11:30:50 51°26.433 3°8.28 69.4 0.8 44 13
2011-03-17 11:31:50 51°26.442 3°8.292 87 0.5 44 4.9
2011-03-17 11:32:50 51°26.451 3°8.301 99.3 0.8 29 12.5
2011-03-17 11:33:50 51°26.46 3°8.313 106.4 0.9 40 12.8
2011-03-17 11:34:50 51°26.468 3°8.328 110.1 0.7 51 12.9
2011-03-17 11:35:50 51°26.477 3°8.346 109.7 0.8 52 12.5
2011-03-17 11:36:50 51°26.485 3°8.364 106.7 0.9 56 12.9
2011-03-17 11:37:50 51°26.494 3°8.384 99.8 1 53 12.4
2011-03-17 11:38:50 51°26.503 3°8.404 96 1.1 46 13
2011-03-17 11:39:50 51°26.512 3°8.426 88.5 1.1 54 12.2
2011-03-17 11:40:50 51°26.522 3°8.448 81.4 1 54 12.8
2011-03-17 11:41:50 51°26.533 3°8.469 77 1 45 11.6
2011-03-17 11:42:50 51°26.542 3°8.489 75.4 0.9 48 12.3
2011-03-17 11:43:50 51°26.552 3°8.508 73.8 0.9 55 12.7
2011-03-17 11:44:50 51°26.562 3°8.526 76 1 37 12.2
2011-03-17 11:45:50 51°26.586 3°8.591 69.7 4.4 62 12
2011-03-17 11:46:50 51°26.568 3°8.707 152.1 5.1 153 12.5
2011-03-17 11:47:50 51°26.477 3°8.623 228.5 9.5 235 12.5
2011-03-17 11:48:49 51°26.502 3°8.345 290.6 12.1 293 12.2
2011-03-17 11:49:50 51°26.583 3°8.167 338.5 5.9 345 12.4
2011-03-17 11:50:50 51°26.627 3°8.177 36.2 0.9 26 12.5
2011-03-17 11:51:50 51°26.637 3°8.189 68 0.7 46 -999
2011-03-17 11:52:50 51°26.647 3°8.201 83.6 0.7 43 12.8
2011-03-17 11:53:49 51°26.659 3°8.226 77.7 2.7 61 12.5
2011-03-17 11:54:50 51°26.715 3°8.283 7.3 4.6 6 12.9
2011-03-17 11:55:49 51°26.771 3°8.223 287.9 4.9 296 13.4
2011-03-17 11:56:49 51°26.831 3°7.991 290.2 12.4 293 13.7
2011-03-17 11:57:50 51°26.928 3°7.685 294.7 12.9 297 13.7
2011-03-17 11:58:49 51°27.027 3°7.384 294.7 12.9 297 14
2011-03-17 11:59:50 51°27.129 3°7.075 294.3 12.8 298 14.4
2011-03-17 12:00:49 51°27.227 3°6.778 294 12.8 298 15.4
2011-03-17 12:01:50 51°27.328 3°6.471 294.2 12.8 298 15.9
2011-03-17 12:02:49 51°27.426 3°6.174 294.6 12.8 298 16.4
2011-03-17 12:03:49 51°27.526 3°5.874 293.3 12.7 298 16.3
2011-03-17 12:04:49 51°27.627 3°5.573 293.6 12.8 298 17.1
2011-03-17 12:05:49 51°27.714 3°5.265 281.2 12.4 284 17
2011-03-17 12:06:49 51°27.76 3°4.94 280.1 12.6 284 16.5
2011-03-17 12:07:49 51°27.808 3°4.614 280.4 12.6 284 16.6
2011-03-17 12:08:50 51°27.857 3°4.286 279.5 11.9 284 18.8
2011-03-17 12:09:49 51°27.904 3°4.093 293.6 5.9 304 19.8
2011-03-17 12:10:50 51°27.958 3°3.989 299.7 4.5 309 20.8
2011-03-17 12:11:49 51°28.004 3°3.875 288.7 6 295 21.6
2011-03-17 12:12:50 51°28.033 3°3.713 271.7 6.3 276 21.9
2011-03-17 12:13:49 51°28.054 3°3.548 285.3 6.5 295 22.3
2011-03-17 12:14:49 51°28.127 3°3.412 306.9 6.8 318 23.7
2011-03-17 12:15:49 51°28.206 3°3.384 347.3 3.1 4 24.4
2011-03-17 12:16:49 51°28.249 3°3.388 338.9 3.4 2 24.5
2011-03-17 12:17:50 51°28.278 3°3.412 24 1.3 44 24.8
2011-03-17 12:18:50 51°28.291 3°3.44 52.6 1.3 54 -999
2011-03-17 12:19:50 51°28.302 3°3.467 70.8 1.3 50 24.6
2011-03-17 12:20:49 51°28.31 3°3.495 85.4 1.1 64 24.8
2011-03-17 12:21:50 51°28.32 3°3.522 89.8 1.1 61 24.2
2011-03-17 12:22:49 51°28.329 3°3.548 92.4 1 68 24.7
2011-03-17 12:23:50 51°28.338 3°3.575 94.3 1.2 57 24.3
2011-03-17 12:24:49 51°28.346 3°3.6 91.9 1.1 66 24.5
2011-03-17 12:25:49 51°28.354 3°3.628 86.9 1.1 64 24.3
2011-03-17 12:26:50 51°28.363 3°3.655 82.4 1.2 62 24.6
2011-03-17 12:27:49 51°28.372 3°3.681 79.4 1.1 63 24.5
2011-03-17 12:28:50 51°28.381 3°3.709 78.9 1.1 78 24.9
2011-03-17 12:29:49 51°28.389 3°3.735 80.3 1 71 24.4
2011-03-17 12:30:49 51°28.396 3°3.76 82.5 1.1 63 24.4
2011-03-17 12:31:49 51°28.403 3°3.784 84.2 0.9 72 24.2
2011-03-17 12:32:49 51°28.409 3°3.807 81.6 0.9 65 24.3
2011-03-17 12:33:49 51°28.416 3°3.829 79 0.9 63 24.1
2011-03-17 12:34:49 51°28.424 3°3.864 90.3 2.7 79 24.4
2011-03-17 12:35:49 51°28.408 3°3.945 154.2 3.2 140 23.9
2011-03-17 12:36:49 51°28.338 3°3.917 216.2 7.9 219 23.3
2011-03-17 12:37:50 51°28.225 3°3.736 219 10.3 219 23.2
2011-03-17 12:38:49 51°28.145 3°3.522 264.6 9.8 274 23.3
2011-03-17 12:39:50 51°28.233 3°3.396 347.3 5.7 357 24.3
2011-03-17 12:40:49 51°28.287 3°3.43 44.3 1.9 43 24.8
2011-03-17 12:41:50 51°28.301 3°3.456 82.7 1.2 61 24.5
2011-03-17 12:42:49 51°28.31 3°3.484 96.1 1.2 65 24.5
2011-03-17 12:43:50 51°28.318 3°3.512 97.6 1.1 66 24.6
2011-03-17 12:44:50 51°28.326 3°3.541 93.9 1.2 67 24.7
2011-03-17 12:45:50 51°28.336 3°3.57 84.6 1.3 56 24.3
2011-03-17 12:46:50 51°28.346 3°3.598 74.5 1 62 24.2
2011-03-17 12:47:49 51°28.354 3°3.623 69.3 1 65 24.2
2011-03-17 12:48:49 51°28.362 3°3.646 66.4 1 65 24.4
2011-03-17 12:49:49 51°28.369 3°3.668 67.1 0.9 61 24.2
2011-03-17 12:50:49 51°28.375 3°3.688 67.9 0.9 71 24.8
2011-03-17 12:51:49 51°28.381 3°3.708 72.6 0.9 59 24.1
2011-03-17 12:52:50 51°28.387 3°3.729 75.2 0.9 61 24.4
2011-03-17 12:53:50 51°28.393 3°3.749 77.5 0.9 63 24
2011-03-17 12:54:49 51°28.4 3°3.768 78 0.8 68 24.2
2011-03-17 12:55:50 51°28.406 3°3.788 76.2 0.8 67 24
2011-03-17 12:56:49 51°28.411 3°3.808 74.8 0.8 68 24.1
2011-03-17 12:57:49 51°28.417 3°3.826 74.5 0.7 60 24.2
2011-03-17 12:58:49 51°28.423 3°3.843 72.1 1 61 24
2011-03-17 12:59:49 51°28.447 3°3.887 34 3.2 35 24
2011-03-17 13:00:49 51°28.503 3°3.897 329.6 3.5 339 24.4
2011-03-17 13:01:49 51°28.531 3°3.815 264.1 5.1 265 24.4
2011-03-17 13:02:50 51°28.48 3°3.635 237.3 10.3 238 24.8
2011-03-17 13:03:49 51°28.378 3°3.369 237.7 12.4 236 24.7
2011-03-17 13:04:50 51°28.278 3°3.084 239.7 12.2 237 24.6
2011-03-17 13:05:49 51°28.184 3°2.81 239.6 11.8 242 24.9
2011-03-17 13:06:49 51°28.088 3°2.536 239.1 11.7 241 24.9
2011-03-17 13:07:49 51°27.999 3°2.261 241.7 11.6 245 25.3
2011-03-17 13:08:49 51°27.911 3°1.984 243.3 11.7 246 25.4
2011-03-17 13:09:49 51°27.825 3°1.704 242.5 11.6 246 24.4
2011-03-17 13:10:49 51°27.751 3°1.419 254.4 11.8 260 23.8
2011-03-17 13:11:49 51°27.723 3°1.105 260.3 12 262 25.2
2011-03-17 13:12:49 51°27.689 3°0.789 257 12.1 259 25.5
2011-03-17 13:13:50 51°27.652 3°0.465 256.9 12.2 260 23.5
2011-03-17 13:14:49 51°27.614 3°0.147 256 12.5 261 22.5
2011-03-17 13:15:49 51°27.575 2°59.822 255.2 12.5 259 21.3
2011-03-17 13:16:49 51°27.535 2°59.494 256.5 12.6 260 22.5
2011-03-17 13:17:49 51°27.493 2°59.167 256 12.5 259 21.4
2011-03-17 13:18:49 51°27.45 2°58.839 256 12.6 260 18.9
2011-03-17 13:19:49 51°27.408 2°58.512 256.2 12.5 259 19
2011-03-17 13:20:49 51°27.365 2°58.187 256.2 12.6 259 19.9
2011-03-17 13:21:49 51°27.323 2°57.857 257.4 12.7 260 22.4
2011-03-17 13:22:49 51°27.278 2°57.531 255.8 12.5 256 24.6
2011-03-17 13:23:49 51°27.234 2°57.204 257 12.5 257 26.3
2011-03-17 13:24:49 51°27.187 2°56.879 255.7 12.5 257 23.6
2011-03-17 13:25:49 51°27.143 2°56.555 256.5 12.4 258 24.1
2011-03-17 13:26:49 51°27.098 2°56.231 256 12.5 258 29.5
2011-03-17 13:27:49 51°27.053 2°55.905 255.9 12.5 258 30.3
2011-03-17 13:28:49 51°26.997 2°55.586 254.1 12.3 251 31.2
2011-03-17 13:29:49 51°26.941 2°55.269 254.9 12.3 254 28.7
2011-03-17 13:30:49 51°26.883 2°54.954 253.6 12.4 253 27.8
2011-03-17 13:31:49 51°26.827 2°54.634 253.7 12.5 254 27.4
2011-03-17 13:32:49 51°26.772 2°54.316 253.5 12.4 254 27.4
2011-03-17 13:33:49 51°26.713 2°53.997 251.5 12.7 251 32.9
2011-03-17 13:34:49 51°26.654 2°53.673 253.9 12.7 254 33.1
2011-03-17 13:35:49 51°26.595 2°53.349 253.4 12.7 254 32.6
2011-03-17 13:36:49 51°26.535 2°53.027 253.1 12.7 253 30.8
2011-03-17 13:37:49 51°26.475 2°52.704 253.8 12.5 254 27.5
2011-03-17 13:38:49 51°26.415 2°52.382 253.9 12.8 251 29.1
2011-03-17 13:39:49 51°26.354 2°52.061 253.5 12.6 252 28
2011-03-17 13:40:49 51°26.292 2°51.741 253.4 12.6 254 26.3
2011-03-17 13:41:49 51°26.232 2°51.418 253.8 12.5 251 29.1
2011-03-17 13:42:49 51°26.172 2°51.092 254.1 12.8 253 24.8
2011-03-17 13:43:49 51°26.111 2°50.768 253.4 12.7 249 24.4
2011-03-17 13:44:49 51°26.049 2°50.445 253.7 12.7 253 24.8
2011-03-17 13:45:49 51°25.99 2°50.118 253.4 12.8 251 24.3
2011-03-17 13:46:49 51°25.93 2°49.792 254.9 12.9 258 24.7
2011-03-17 13:47:49 51°25.885 2°49.459 257.2 12.7 259 24.2
2011-03-17 13:48:49 51°25.849 2°49.136 260.3 10.9 263 25
2011-03-17 13:49:49 51°25.83 2°48.876 263.5 9 266 25.4
2011-03-17 13:50:49 51°25.82 2°48.674 265.4 6.8 269 25.3
2011-03-17 13:51:49 51°25.853 2°48.528 293.8 5.3 301 25.2
2011-03-17 13:52:49 51°25.913 2°48.443 330.4 4.4 340 24.9
2011-03-17 13:53:49 51°25.97 2°48.447 13.8 2.5 21 24.3
2011-03-17 13:54:49 51°25.99 2°48.469 45.4 0.5 51 24.8
2011-03-17 13:55:49 51°25.994 2°48.483 67.6 0.7 78 25.1
2011-03-17 13:56:49 51°25.996 2°48.499 76.3 0.6 71 24.6
2011-03-17 13:57:49 51°25.998 2°48.515 77.6 0.6 81 24.2
2011-03-17 13:58:49 51°25.999 2°48.53 74.5 0.5 84 24.7
2011-03-17 13:59:49 51°26 2°48.544 71.1 0.6 90 24.9
2011-03-17 14:00:49 51°26.004 2°48.587 92.8 3.1 86 24.9
2011-03-17 14:01:49 51°25.971 2°48.657 167.3 3.6 166 25.1
2011-03-17 14:02:49 51°25.915 2°48.607 231.6 5.3 230 25.4
2011-03-17 14:03:49 51°25.838 2°48.419 242 11.1 245 24.7
2011-03-17 14:04:49 51°25.755 2°48.119 244.8 12.8 246 24.8
2011-03-17 14:05:49 51°25.663 2°47.815 242.8 12.7 243 24.6
2011-03-17 14:06:49 51°25.566 2°47.511 243 12.7 242 26.3
2011-03-17 14:07:49 51°25.469 2°47.208 242 12.8 242 26.5
2011-03-17 14:08:49 51°25.372 2°46.906 243 12.7 241 26.1
2011-03-17 14:09:49 51°25.273 2°46.604 241.1 13 243 26.1
2011-03-17 14:10:49 51°25.175 2°46.304 241.1 12.9 243 26.4
2011-03-17 14:11:49 51°25.077 2°46 243.2 12.7 243 25.6
2011-03-17 14:12:49 51°24.967 2°45.71 237.4 12.9 236 26
2011-03-17 14:13:49 51°24.855 2°45.42 237.7 12.6 240 24.5
2011-03-17 14:14:49 51°24.743 2°45.132 237.8 12.9 239 27.2
2011-03-17 14:15:49 51°24.631 2°44.842 238.2 12.8 237 26.5
2011-03-17 14:16:49 51°24.521 2°44.551 239.1 12.7 243 26.9
2011-03-17 14:17:49 51°24.409 2°44.26 237.9 12.8 236 19.5
2011-03-17 14:18:49 51°24.297 2°43.968 238.2 12.8 239 27.7
2011-03-17 14:19:49 51°24.182 2°43.675 237.6 13 240 26.2
2011-03-17 14:20:49 51°24.067 2°43.383 237.6 13.2 236 28.4
2011-03-17 14:21:49 51°23.954 2°43.087 238.8 13.1 237 24.1
2011-03-17 14:22:49 51°23.849 2°42.78 242.5 13.3 244 28.8
2011-03-17 14:23:49 51°23.748 2°42.469 242.5 13.2 244 27
2011-03-17 14:24:49 51°23.648 2°42.163 243.3 12.8 240 27.8
2011-03-17 14:25:49 51°23.55 2°41.856 241.6 13.2 245 27.9
2011-03-17 14:26:49 51°23.451 2°41.546 243.2 13.1 242 29.7
2011-03-17 14:27:49 51°23.35 2°41.233 243.4 13.3 244 29.2
2011-03-17 14:28:49 51°23.249 2°40.918 242.5 13.4 244 29.9
2011-03-17 14:29:49 51°23.147 2°40.603 242.4 13.3 241 30.7
2011-03-17 14:30:49 51°23.045 2°40.292 241.7 13 242 30
2011-03-17 14:31:49 51°22.875 2°40.116 187.7 12.4 186 29.7
2011-03-17 14:32:49 51°22.661 2°40.109 179.7 13 181 30.5
2011-03-17 14:33:49 51°22.446 2°40.104 181 12.9 184 29.9
2011-03-17 14:34:49 51°22.248 2°39.986 212.5 12.8 214 29.5
2011-03-17 14:35:49 51°22.067 2°39.796 211.9 13.1 212 29
2011-03-17 14:36:49 51°21.881 2°39.605 211.3 13.6 212 28
2011-03-17 14:37:49 51°21.712 2°39.38 223.3 13.4 224 27.6
2011-03-17 14:38:49 51°21.585 2°39.093 237.4 13.2 238 27.4
2011-03-17 14:39:49 51°21.471 2°38.788 241.6 13.5 239 27.4
2011-03-17 14:40:49 51°21.365 2°38.475 241.1 13.4 242 25.6
2011-03-17 14:41:49 51°21.257 2°38.163 240.8 13.6 242 25.6
2011-03-17 14:42:49 51°21.153 2°37.849 243.8 13.3 249 25.5
2011-03-17 14:43:49 51°21.104 2°37.502 259.9 13.4 259 25.4
2011-03-17 14:44:49 51°21.06 2°37.155 258.5 13.3 258 23.8
2011-03-17 14:45:49 51°21.015 2°36.807 259.2 13.3 258 24.8
2011-03-17 14:46:49 51°20.968 2°36.461 258.3 13.3 256 24.9
2011-03-17 14:47:49 51°20.916 2°36.112 257.7 13.5 257 26.7
2011-03-17 14:48:49 51°20.866 2°35.762 257 13.6 258 25.3
2011-03-17 14:49:49 51°20.817 2°35.41 257.3 13.7 259 27.4
2011-03-17 14:50:49 51°20.768 2°35.055 257.5 13.8 258 31.5
2011-03-17 14:51:49 51°20.719 2°34.701 257.3 13.6 258 30.7
2011-03-17 14:52:49 51°20.67 2°34.353 256.3 13.5 255 32.1
2011-03-17 14:53:49 51°20.619 2°34.01 256.3 13.2 257 31.4
2011-03-17 14:54:49 51°20.571 2°33.668 257 13.2 260 31.2
2011-03-17 14:55:49 51°20.519 2°33.325 254.8 13.4 254 31.3
2011-03-17 14:56:49 51°20.44 2°32.993 249.9 13.3 245 31.2
2011-03-17 14:57:49 51°20.362 2°32.664 249.2 13.3 247 30.7
2011-03-17 14:58:49 51°20.282 2°32.33 248.7 13.6 250 31.1
2011-03-17 14:59:49 51°20.204 2°31.996 250 13.3 250 30.2
2011-03-17 15:00:49 51°20.123 2°31.663 249.8 13.4 249 30.3
2011-03-17 15:01:49 51°20.043 2°31.331 249.4 13.3 249 25.3
2011-03-17 15:02:49 51°19.962 2°30.996 249.5 13.4 249 21.1
2011-03-17 15:03:49 51°19.885 2°30.655 250.2 13.6 252 16.1
2011-03-17 15:04:49 51°19.802 2°30.334 241 11.4 246 12.8
2011-03-17 15:05:49 51°19.823 2°30.071 303.8 10.2 301 13.9
2011-03-17 15:06:49 51°19.917 2°29.851 319.5 8.4 318 14.4
2011-03-17 15:07:49 51°20.002 2°29.862 55.4 3.8 50 15.4
2011-03-17 15:08:49 51°20.01 2°29.942 95 2.9 90 9.7
2011-03-17 15:09:49 51°20.024 2°30.002 71 1.1 50 14.3
2011-03-17 15:10:49 51°20.029 2°30 54.4 0.3 282 14.3
2011-03-17 15:11:49 51°20.03 2°29.986 46.2 0.7 279 14
2011-03-17 15:12:49 51°20.029 2°29.968 45 0.8 258 13.7
2011-03-17 15:13:49 51°20.025 2°29.943 53.3 1.1 238 11.3
2011-03-17 15:14:49 51°20.019 2°29.919 60.2 0.1 335 12.1
2011-03-17 15:15:49 51°20.032 2°30.013 80.1 7.2 76 13.9
2011-03-17 15:16:49 51°20.03 2°30.254 104.6 10.5 106 13.1
2011-03-17 15:17:49 51°19.929 2°30.511 122 11.7 127 15
2011-03-17 15:18:49 51°19.809 2°30.768 124.8 12.3 126 19.4
2011-03-17 15:19:49 51°19.689 2°31.035 123.8 12.4 125 25.3
2011-03-17 15:20:49 51°19.565 2°31.304 124.9 12.8 129 29.3
2011-03-17 15:21:49 51°19.442 2°31.579 123.5 12.8 125 30.2
2011-03-17 15:22:49 51°19.319 2°31.849 124.1 12.6 125 30
2011-03-17 15:23:49 51°19.196 2°32.124 124.2 12.6 126 30.7
2011-03-17 15:24:49 51°19.074 2°32.4 121.8 12.7 124 29.7
2011-03-17 15:25:49 51°18.95 2°32.671 125.7 12.9 127 30.1
2011-03-17 15:26:49 51°18.824 2°32.94 125.2 12.7 129 26.1
2011-03-17 15:27:49 51°18.701 2°33.211 124.2 12.7 130 25.2
2011-03-17 15:28:49 51°18.58 2°33.48 125.5 12.5 121 17.9
2011-03-17 15:29:49 51°18.457 2°33.741 124.1 12.3 126 18.1
2011-03-17 15:30:49 51°18.332 2°34.006 124.5 12.6 127 24.4
2011-03-17 15:31:49 51°18.209 2°34.272 123.9 12.5 125 26.2
2011-03-17 15:32:49 51°18.076 2°34.529 127.8 12.6 128 27.1
2011-03-17 15:33:49 51°17.943 2°34.78 126.3 12.4 133 21.6
2011-03-17 15:34:49 51°17.809 2°35.028 127.9 12.4 130 17.4
2011-03-17 15:35:49 51°17.681 2°35.278 126.4 12.3 130 14.3
2011-03-17 15:36:49 51°17.553 2°35.52 131 11.7 136 10.6
2011-03-17 15:37:49 51°17.393 2°35.715 139.2 12.2 143 12.5
2011-03-17 15:38:49 51°17.228 2°35.917 139.2 12.6 139 17.3
2011-03-17 15:39:49 51°17.062 2°36.122 140.2 12.7 142 23.7
2011-03-17 15:40:49 51°16.897 2°36.329 140.1 12.7 145 26.7
2011-03-17 15:41:49 51°16.737 2°36.51 140.5 10.6 144 26.5
2011-03-17 15:42:49 51°16.626 2°36.612 148.8 5.7 160 26.4
2011-03-17 15:43:49 51°16.575 2°36.68 98.8 3 104 26.5
2011-03-17 15:44:49 51°16.583 2°36.737 59.5 2 60 26.2
2011-03-17 15:45:49 51°16.598 2°36.77 46.9 0.4 54 26
2011-03-17 15:46:49 51°16.599 2°36.771 34.3 0.1 243 26
2011-03-17 15:47:49 51°16.596 2°36.767 30.2 0.4 216 26.1
2011-03-17 15:48:49 51°16.588 2°36.76 28.9 0.6 210 26
2011-03-17 15:49:49 51°16.578 2°36.75 31 0.8 207 26.4
2011-03-17 15:50:49 51°16.565 2°36.741 36.2 0.9 200 26.2
2011-03-17 15:51:49 51°16.557 2°36.741 54.9 1.1 75 26.2
2011-03-17 15:52:49 51°16.542 2°36.798 118.4 3.5 140 26.1
2011-03-17 15:53:49 51°16.45 2°36.893 137.3 9 145 26.3
2011-03-17 15:54:49 51°16.304 2°37.031 151.7 11.4 160 25.8
2011-03-17 15:55:49 51°16.107 2°37.117 162.7 12.8 167 19.3
2011-03-17 15:56:49 51°15.891 2°37.176 166.8 13.1 168 11.8
2011-03-17 15:57:49 51°15.679 2°37.233 167.3 13 171 11.8
2011-03-17 15:58:49 51°15.47 2°37.308 162 12.9 168 11.3
2011-03-17 15:59:49 51°15.259 2°37.362 166.8 12.9 172 9.6
2011-03-17 16:00:49 51°15.051 2°37.431 162.4 12.6 171 9.6
2011-03-17 16:01:49 51°14.84 2°37.486 165.5 13.2 173 9.4
2011-03-17 16:02:49 51°14.618 2°37.486 176.9 13.1 182 10.3
2011-03-17 16:03:49 51°14.395 2°37.496 170.6 13.5 173 12.6
2011-03-17 16:04:49 51°14.169 2°37.519 172.1 13.6 177 16.7
2011-03-17 16:05:49 51°13.944 2°37.541 171.2 13.5 178 19.3
2011-03-17 16:06:49 51°13.718 2°37.542 176.8 13.7 181 15
2011-03-17 16:07:49 51°13.506 2°37.532 177.2 12.2 183 8.4
2011-03-17 16:08:49 51°13.292 2°37.534 175.9 13 181 9.1
2011-03-17 16:09:49 51°13.067 2°37.536 172.5 13.3 177 10.2
2011-03-17 16:10:49 51°12.841 2°37.536 176.5 13.5 180 11.1
2011-03-17 16:11:49 51°12.614 2°37.518 184.9 13.8 192 11
2011-03-17 16:12:49 51°12.396 2°37.4 198.8 14.2 198 10.5
2011-03-17 16:13:49 51°12.179 2°37.274 196.2 13.8 198 10.3
2011-03-17 16:14:49 51°11.96 2°37.148 196.7 14.1 200 10.8
2011-03-17 16:15:49 51°11.74 2°37.033 194.8 13.9 198 11.3
2011-03-17 16:16:49 51°11.518 2°36.916 195.8 14.1 198 11.8
2011-03-17 16:17:49 51°11.296 2°36.795 196.4 14.3 200 11.9
2011-03-17 16:18:49 51°11.075 2°36.677 196.1 14.2 199 11.4
2011-03-17 16:19:49 51°10.851 2°36.587 185.5 14 189 10.8
2011-03-17 16:20:49 51°10.625 2°36.546 183.7 13.7 189 9.4
2011-03-17 16:21:49 51°10.404 2°36.49 187.4 13.5 191 8.8
2011-03-17 16:22:49 51°10.191 2°36.523 142.4 12 141 16.2
2011-03-17 16:23:49 51°10.135 2°36.817 99.6 12 99 17.3
2011-03-17 16:24:49 51°10.175 2°37.119 72.5 11.9 72 16.8
2011-03-17 16:25:49 51°10.232 2°37.424 73.6 12.1 75 17
2011-03-17 16:26:49 51°10.284 2°37.731 75.2 12 75 17.1
2011-03-17 16:27:49 51°10.334 2°38.041 75.3 12.1 76 16.3
2011-03-17 16:28:49 51°10.385 2°38.351 74.7 12.1 75 15.9
2011-03-17 16:29:49 51°10.435 2°38.662 76.1 12 78 15.5
2011-03-17 16:30:49 51°10.483 2°38.972 74.5 11.9 76 15.2
2011-03-17 16:31:49 51°10.532 2°39.279 75.7 11.9 75 14.5
2011-03-17 16:32:49 51°10.585 2°39.58 73.7 11.9 73 14.3
2011-03-17 16:33:49 51°10.643 2°39.882 72.6 11.9 72 13.7
2011-03-17 16:34:49 51°10.699 2°40.182 72.9 11.9 73 12.9
2011-03-17 16:35:49 51°10.755 2°40.482 73.4 11.7 72 12.4
2011-03-17 16:36:49 51°10.814 2°40.779 71 11.7 70 12
2011-03-17 16:37:49 51°10.878 2°41.071 71.4 11.7 71 11.5
2011-03-17 16:38:49 51°10.942 2°41.363 71.2 11.6 71 11.3
2011-03-17 16:39:49 51°10.992 2°41.602 70.5 7.8 71 11.7
2011-03-17 16:40:49 51°11.03 2°41.783 71.1 6.9 72 11.4
2011-03-17 16:41:49 51°11.069 2°41.949 64.6 6.7 64 11.7
2011-03-17 16:42:49 51°11.114 2°42.083 59.2 3.8 56 11.5
2011-03-17 16:43:49 51°11.125 2°42.121 70.6 0.2 145 11.6
2011-03-17 16:44:49 51°11.118 2°42.12 58.5 0.5 196 11.7
2011-03-17 16:45:49 51°11.109 2°42.111 53.1 0.8 215 11.8
2011-03-17 16:46:49 51°11.097 2°42.097 45.9 1 216 11.6
2011-03-17 16:47:49 51°11.085 2°42.08 40.4 1 221 11.7
2011-03-17 16:48:49 51°11.072 2°42.062 37 1.1 223 11.6
2011-03-17 16:49:49 51°11.061 2°42.045 35.2 0.8 225 11.8
2011-03-17 16:50:49 51°11.054 2°42.031 35.7 0.6 256 11.7
2011-03-17 16:51:49 51°11.05 2°42.02 35.4 0.5 237 11.5
2011-03-17 16:52:49 51°11.047 2°42.009 35 0.4 231 11.8
2011-03-17 16:53:49 51°11.043 2°41.999 37.1 0.5 230 11.6
2011-03-17 16:54:49 51°11.037 2°41.989 39.9 0.5 228 11.8
2011-03-17 16:55:49 51°11.031 2°41.98 42.9 0.4 233 11.7
2011-03-17 16:56:49 51°11.031 2°41.975 39.3 1 23 11.9
2011-03-17 16:57:49 51°11.063 2°41.997 31.3 1.8 13 11.5
2011-03-17 16:58:49 51°11.083 2°42.005 37.1 0.9 24 11.6
2011-03-17 16:59:49 51°11.091 2°42.014 51.4 0.4 51 11.5
2011-03-17 17:00:49 51°11.092 2°42.02 55.2 0.2 97 11.3
2011-03-17 17:01:49 51°11.092 2°42.019 48.5 0.2 281 11.4
2011-03-17 17:02:49 51°11.091 2°42.015 43.2 0.2 271 11.6
2011-03-17 17:03:49 51°11.09 2°42.008 38.3 0.3 270 11.5
2011-03-17 17:04:49 51°11.088 2°41.999 37.9 0.3 245 11.6
2011-03-17 17:05:49 51°11.086 2°41.99 35.5 0.3 218 11.3
2011-03-17 17:06:49 51°11.083 2°41.979 34.9 0.4 241 11.6
2011-03-17 17:07:49 51°11.08 2°41.967 33.2 0.6 256 11.4
2011-03-17 17:08:49 51°11.077 2°41.955 31.6 0.5 251 11.6
2011-03-17 17:09:49 51°11.074 2°41.941 30.6 0.5 254 11.7
2011-03-17 17:10:49 51°11.071 2°41.929 31.5 0.6 259 11.5
2011-03-17 17:11:49 51°11.068 2°41.916 28.7 0.5 259 11.7
2011-03-17 17:12:49 51°11.066 2°41.904 28.3 0.5 265 11.6
2011-03-17 17:13:49 51°11.064 2°41.892 29.9 0.5 252 11.6
2011-03-17 17:14:49 51°11.066 2°41.886 31.7 1.3 22 11.6
2011-03-17 17:15:49 51°11.09 2°41.957 82.1 5.5 85 11.4
2011-03-17 17:16:49 51°11.103 2°42.179 84.4 10.5 84 11.4
2011-03-17 17:17:49 51°11.121 2°42.479 84.8 11.6 87 11.6
2011-03-17 17:18:49 51°11.138 2°42.784 85.2 11.5 85 11.9
2011-03-17 17:19:49 51°11.151 2°43.086 85 11.4 85 11.8
2011-03-17 17:20:49 51°11.195 2°43.376 72.8 11.3 73 12
2011-03-17 17:21:49 51°11.251 2°43.66 73.4 11.3 72 11.5
2011-03-17 17:22:49 51°11.303 2°43.947 74 11.1 72 11.9
2011-03-17 17:23:49 51°11.353 2°44.234 75.6 11.3 75 11.6
2011-03-17 17:24:49 51°11.404 2°44.521 74.9 11.3 74 11.9
2011-03-17 17:25:49 51°11.454 2°44.808 75.1 11.2 74 11.7
2011-03-17 17:26:49 51°11.502 2°45.094 75.9 11.1 75 11.7
2011-03-17 17:27:49 51°11.552 2°45.38 73.6 11.2 75 11.9
2011-03-17 17:28:49 51°11.599 2°45.664 74.1 11.1 74 11.9
2011-03-17 17:29:49 51°11.663 2°45.939 69.9 11.1 69 11.7
2011-03-17 17:30:49 51°11.728 2°46.215 69.8 11 69 12
2011-03-17 17:31:49 51°11.791 2°46.494 71 11.2 69 11.9
2011-03-17 17:32:49 51°11.854 2°46.771 70.5 11.2 68 11.8
2011-03-17 17:33:49 51°11.928 2°47.04 66 11.1 66 11.6
2011-03-17 17:34:49 51°12.007 2°47.307 66.1 11.2 65 11.8
2011-03-17 17:35:49 51°12.082 2°47.577 66.7 11.1 66 11.5
2011-03-17 17:36:49 51°12.161 2°47.845 66.2 11.1 64 11.4
2011-03-17 17:37:49 51°12.239 2°48.113 65.3 11.2 64 11.2
2011-03-17 17:38:49 51°12.324 2°48.374 63.8 11 62 11.4
2011-03-17 17:39:49 51°12.408 2°48.635 64 11.2 64 11.1
2011-03-17 17:40:49 51°12.489 2°48.898 64.5 11.1 64 11.1
2011-03-17 17:41:49 51°12.583 2°49.15 61.5 11.2 61 10.8
2011-03-17 17:42:49 51°12.675 2°49.406 62 11.1 59 10.9
2011-03-17 17:43:49 51°12.769 2°49.662 61.1 11.2 61 10.6
2011-03-17 17:44:49 51°12.867 2°49.915 60.1 11.3 57 10.6
2011-03-17 17:45:49 51°12.963 2°50.174 61.1 11.5 60 10.5
2011-03-17 17:46:49 51°13.06 2°50.437 60.4 11.5 60 10.3
2011-03-17 17:47:49 51°13.156 2°50.704 60.1 11.6 59 10.4
2011-03-17 17:48:49 51°13.254 2°50.969 59 11.6 57 10.1
2011-03-17 17:49:49 51°13.353 2°51.231 59.5 11.6 58 10.2
2011-03-17 17:50:49 51°13.448 2°51.494 60.9 11.4 60 10.1
2011-03-17 17:51:49 51°13.544 2°51.754 60.3 11.5 59 9.7
2011-03-17 17:52:49 51°13.641 2°52.013 59.5 11.4 60 9.7
2011-03-17 17:53:49 51°13.737 2°52.272 59.3 11.3 60 9.5
2011-03-17 17:54:49 51°13.83 2°52.531 60.9 11.3 60 9.5
2011-03-17 17:55:49 51°13.923 2°52.793 60.5 11.4 60 9.3
2011-03-17 17:56:49 51°14.017 2°53.056 60.3 11.4 61 9.1
2011-03-17 17:57:49 51°14.11 2°53.319 60.5 11.4 60 8.9
2011-03-17 17:58:49 51°14.208 2°53.581 57.8 11.6 59 8.9
2011-03-17 17:59:49 51°14.306 2°53.843 57.6 11.5 56 8.9
2011-03-17 18:00:49 51°14.416 2°54.092 55.8 11.5 53 8.9
2011-03-17 18:01:49 51°14.513 2°54.356 60.3 11.5 60 9.2
2011-03-17 18:02:49 51°14.596 2°54.63 73.4 11.6 81 9.7
2011-03-17 18:03:49 51°14.541 2°54.927 114.5 12.4 125 11
2011-03-17 18:04:49 51°14.395 2°55.154 143.1 12.1 143 9.8
2011-03-17 18:05:49 51°14.234 2°55.325 148 10.9 149 10.2
2011-03-17 18:06:50 51°14.088 2°55.44 155.5 8.7 155 -999
2011-03-17 18:07:52 51°13.961 2°55.531 156.5 7.8 156 10.7
2011-03-17 18:08:50 51°13.855 2°55.608 156.9 7 155 9.9
2011-03-17 18:09:49 51°13.765 2°55.701 137.6 5.9 135 10.9
2011-03-17 18:10:49 51°13.71 2°55.806 128.3 4.5 127 10.9
2011-03-17 18:11:49 51°13.675 2°55.89 116.9 3.2 115 8.5
2011-03-17 18:12:49 51°13.662 2°55.956 111.6 1.4 109 7.6